Euro IV — IQNH — position and weather

sailwx.info

Track history (hours):
 
Tides and Currents Weather Stations Pressure Air Temp Water Temp Dewpoint Dewpoint Depression Visibility Wind Speed Wind Dir Waves Ship Positions

Euro IV

Last reported at 2017-Jun-26 18:18 UTC. Time now 2017-Jun-26 21:05 UTC.
Position N 44°06' E 009°50'.

Length 25 m; draft 1.3 m.

Type: Passenger vessel. MMSI: 247131500.

Date/timePositionNaut miles runAvg speedWind from/ knotsBaromVisibWave heightAir tempDewpointWater temp
2017-Jun-26 18:18N 44°06' E 009°50'2 7.5
2017-Jun-26 18:00N 44°04' E 009°51'611.1
2017-Jun-26 17:30N 44°04' E 009°44'710.2
2017-Jun-26 16:48N 44°09' E 009°36'2 7.9
2017-Jun-26 16:30N 44°09' E 009°39'3 6.1
2017-Jun-26 16:00N 44°07' E 009°42'1 2.9
2017-Jun-26 15:30N 44°06' E 009°44'510.7
2017-Jun-26 15:01N 44°03' E 009°50'0 0.0
2017-Jun-26 14:31N 44°03' E 009°50'5 5.2
2017-Jun-26 13:30N 44°06' E 009°44'4 8.8
2017-Jun-26 13:00N 44°09' E 009°39'0 0.0
2017-Jun-26 12:30N 44°09' E 009°39'0 0.0
2017-Jun-26 12:00N 44°09' E 009°39'0 0.0
2017-Jun-26 11:30N 44°09' E 009°39'3 5.5
2017-Jun-26 11:00N 44°07' E 009°42'2 3.4
2017-Jun-26 10:30N 44°06' E 009°44'510.5
2017-Jun-26 10:00N 44°03' E 009°50'2 3.5
2017-Jun-26 09:30N 44°05' E 009°50'1 2.9
2017-Jun-26 09:00N 44°06' E 009°50'0 0.0
2017-Jun-26 08:30N 44°06' E 009°50'0 0.0
2017-Jun-26 08:00N 44°06' E 009°50'0 0.0
2017-Jun-26 07:30N 44°06' E 009°50'0 0.0
2017-Jun-26 07:00N 44°06' E 009°50'0 0.4
2017-Jun-26 06:30N 44°06' E 009°50'0 0.4
2017-Jun-26 06:00N 44°06' E 009°50'0 0.0
2017-Jun-25 15:35N 44°06' E 009°50'0 0.2
2017-Jun-25 15:30N 44°06' E 009°50'4 7.9
2017-Jun-25 15:00N 44°02' E 009°51'0 0.0
2017-Jun-25 14:30N 44°02' E 009°51'2 2.2
2017-Jun-25 13:31N 44°05' E 009°51'1 2.4
2017-Jun-25 13:00N 44°03' E 009°51'2 4.8
2017-Jun-25 12:31N 44°06' E 009°50'1 1.1
2017-Jun-25 11:50N 44°06' E 009°50'0 0.0
2017-Jun-25 11:30N 44°06' E 009°50'0 0.0
2017-Jun-25 11:00N 44°06' E 009°50'0 0.0
2017-Jun-25 07:52N 44°06' E 009°50'0 0.0
2017-Jun-25 07:31N 44°06' E 009°50'0 0.1
2017-Jun-25 07:01N 44°06' E 009°50'0 0.0
2017-Jun-25 06:31N 44°06' E 009°50'0 0.0
2017-Jun-25 06:00N 44°06' E 009°50'0 0.0
2017-Jun-24 17:45N 44°06' E 009°50'1 6.2
2017-Jun-24 17:30N 44°05' E 009°51'2 4.5
2017-Jun-24 17:00N 44°03' E 009°51'611.0
2017-Jun-24 16:30N 44°05' E 009°44'3 5.1
2017-Jun-24 16:00N 44°07' E 009°41'2 3.3
2017-Jun-24 15:30N 44°08' E 009°39'0 0.7
2017-Jun-24 15:00N 44°09' E 009°39'0 0.1
2017-Jun-24 13:55N 44°09' E 009°39'0 0.0
2017-Jun-24 13:30N 44°09' E 009°39'0 0.0
2017-Jun-24 12:58N 44°09' E 009°39'0 0.3
2017-Jun-24 12:30N 44°09' E 009°39'2 3.4
2017-Jun-24 12:00N 44°07' E 009°41'3 4.2
2017-Jun-24 11:20N 44°06' E 009°44'412.0
2017-Jun-24 11:01N 44°04' E 009°48'2 4.2
2017-Jun-24 10:31N 44°05' E 009°51'2 3.8
2017-Jun-24 10:00N 44°06' E 009°50'3 6.1
2017-Jun-24 09:31N 44°03' E 009°51'510.4
2017-Jun-24 09:00N 44°05' E 009°44'1 2.0
2017-Jun-24 08:23N 44°06' E 009°43'514.4
2017-Jun-24 08:01N 44°03' E 009°50'2 4.1
2017-Jun-24 07:30N 44°05' E 009°50'1 2.4
2017-Jun-24 07:00N 44°06' E 009°50'0 0.0
2017-Jun-24 06:30N 44°06' E 009°50'0 0.0
2017-Jun-24 06:00N 44°06' E 009°50'0 0.0
2017-Jun-23 16:44N 44°06' E 009°50'2 7.9
2017-Jun-23 16:30N 44°05' E 009°51'2 4.3
2017-Jun-23 16:00N 44°03' E 009°49'5 8.6
2017-Jun-23 15:26N 44°06' E 009°43'4 8.8
2017-Jun-23 15:00N 44°09' E 009°39'0 0.1
2017-Jun-23 13:57N 44°09' E 009°39'0 0.0
2017-Jun-23 13:21N 44°09' E 009°39'0 0.0
2017-Jun-23 13:00N 44°09' E 009°39'0 0.0
2017-Jun-23 12:27N 44°09' E 009°39'1 2.3
2017-Jun-23 11:55N 44°08' E 009°41'3 7.3
2017-Jun-23 11:30N 44°06' E 009°44'4 7.4
2017-Jun-23 11:00N 44°04' E 009°48'3 5.1
2017-Jun-23 10:30N 44°04' E 009°51'2 4.0
2017-Jun-23 10:00N 44°06' E 009°50'0 0.0
2017-Jun-23 09:30N 44°06' E 009°50'0 0.0
2017-Jun-23 09:00N 44°06' E 009°50'0 0.0
2017-Jun-23 08:30N 44°06' E 009°50'0 0.0
2017-Jun-23 08:00N 44°06' E 009°50'0 0.0
2017-Jun-23 07:30N 44°06' E 009°50'0 0.0
2017-Jun-23 07:00N 44°06' E 009°50'0 0.1
2017-Jun-23 06:30N 44°06' E 009°50'0 0.0
2017-Jun-23 06:00N 44°06' E 009°50'0 0.0
2017-Jun-22 16:38N 44°06' E 009°50'0 0.1
2017-Jun-22 16:27N 44°06' E 009°50'3 7.3
2017-Jun-22 16:00N 44°03' E 009°50'714.7
2017-Jun-22 15:30N 44°07' E 009°41'1 2.0
2017-Jun-22 14:59N 44°08' E 009°40'7 7.4
2017-Jun-22 14:00N 44°03' E 009°49'3 5.5
2017-Jun-22 13:30N 44°06' E 009°50'0 0.3
2017-Jun-22 13:00N 44°06' E 009°50'0 0.0
2017-Jun-22 12:30N 44°06' E 009°50'0 0.0
2017-Jun-22 12:00N 44°06' E 009°50'0 0.0
2017-Jun-22 11:30N 44°06' E 009°50'0 0.0
2017-Jun-22 11:00N 44°06' E 009°50'0 0.0
2017-Jun-22 10:30N 44°06' E 009°50'0 0.8
2017-Jun-22 10:00N 44°06' E 009°50'3 6.8
2017-Jun-22 09:30N 44°03' E 009°47'711.5
2017-Jun-22 08:55N 44°08' E 009°41'511.1
2017-Jun-22 08:30N 44°05' E 009°45'4 8.3
2017-Jun-22 07:58N 44°04' E 009°51'2 4.9
2017-Jun-22 07:30N 44°06' E 009°50'0 0.4
2017-Jun-22 07:00N 44°06' E 009°50'0 0.0
2017-Jun-22 06:30N 44°06' E 009°50'0 0.0
2017-Jun-21 15:53N 44°06' E 009°50'1 2.9
2017-Jun-21 15:30N 44°05' E 009°51'2 4.4
2017-Jun-21 15:00N 44°03' E 009°50'0 0.0
2017-Jun-21 14:30N 44°03' E 009°50'6 5.7
2017-Jun-21 13:30N 44°06' E 009°43'4 7.2
2017-Jun-21 13:00N 44°08' E 009°39'3 6.5
2017-Jun-21 12:30N 44°06' E 009°43'4 7.3
2017-Jun-21 12:00N 44°09' E 009°39'0 0.0
2017-Jun-21 11:30N 44°09' E 009°39'1 1.8
2017-Jun-21 10:47N 44°08' E 009°41'412.7
2017-Jun-21 10:30N 44°05' E 009°44'5 9.9
2017-Jun-21 10:00N 44°03' E 009°50'0 0.0
2017-Jun-21 09:30N 44°03' E 009°50'510.5
2017-Jun-21 09:01N 44°06' E 009°44'1 1.9
2017-Jun-21 08:30N 44°06' E 009°43'4 6.9
2017-Jun-21 08:00N 44°09' E 009°39'3 6.1
2017-Jun-21 07:29N 44°06' E 009°42'4 8.6
2017-Jun-21 07:00N 44°04' E 009°47'3 5.2
2017-Jun-21 06:31N 44°03' E 009°50'3 0.2
2017-Jun-20 15:24N 44°06' E 009°50'0 1.2
2017-Jun-20 15:00N 44°06' E 009°50'3 5.6
2017-Jun-20 14:30N 44°03' E 009°50'6 6.2
2017-Jun-20 13:30N 44°06' E 009°43'4 7.1
2017-Jun-20 13:00N 44°09' E 009°39'0 0.2
2017-Jun-20 12:22N 44°09' E 009°39'0 0.0
2017-Jun-20 12:00N 44°09' E 009°39'0 0.0
2017-Jun-20 11:30N 44°09' E 009°39'0 0.4
2017-Jun-20 10:59N 44°08' E 009°39'0 0.5
2017-Jun-20 10:30N 44°09' E 009°39'3 6.4
2017-Jun-20 10:00N 44°06' E 009°42'2 3.1
2017-Jun-20 09:21N 44°08' E 009°41'3 5.9
2017-Jun-20 08:54N 44°06' E 009°43'1 1.6
2017-Jun-20 08:30N 44°06' E 009°44'510.6
2017-Jun-20 08:00N 44°03' E 009°50'2 3.6
2017-Jun-20 07:30N 44°05' E 009°51'1 2.7
2017-Jun-20 07:00N 44°06' E 009°50'0 0.6
2017-Jun-20 06:30N 44°06' E 009°50'1 0.0
2017-Jun-19 17:15N 44°06' E 009°50'2 6.7
2017-Jun-19 17:00N 44°05' E 009°51'2 3.9
2017-Jun-19 16:30N 44°03' E 009°52'1 2.5
2017-Jun-19 16:00N 44°03' E 009°50'0 0.0
2017-Jun-19 15:30N 44°03' E 009°50'3 6.8
2017-Jun-19 15:00N 44°04' E 009°55'3 3.4
2017-Jun-19 14:01N 44°03' E 009°50'1 2.7
2017-Jun-19 13:31N 44°02' E 009°51'1 2.7
2017-Jun-19 13:00N 44°03' E 009°50'2 4.3
2017-Jun-19 12:31N 44°04' E 009°53'1 2.8
2017-Jun-19 12:00N 44°04' E 009°55'0 0.0
2017-Jun-19 11:31N 44°04' E 009°55'3 6.9
2017-Jun-19 11:00N 44°03' E 009°50'2 3.7
2017-Jun-19 10:30N 44°01' E 009°51'2 3.7
2017-Jun-19 10:00N 44°03' E 009°50'3 6.8
2017-Jun-19 09:30N 44°04' E 009°55'0 0.0
2017-Jun-19 09:00N 44°04' E 009°55'3 6.8
2017-Jun-19 08:30N 44°03' E 009°50'0 0.0
2017-Jun-19 08:00N 44°03' E 009°50'3 6.9
2017-Jun-19 07:30N 44°04' E 009°55'3 6.2
2017-Jun-19 07:00N 44°03' E 009°51'3 6.7
2017-Jun-19 06:30N 44°06' E 009°50'0 0.0
2017-Jun-18 17:11N 44°06' E 009°50'0 0.9
2017-Jun-18 17:00N 44°06' E 009°50'3 6.0
2017-Jun-18 16:30N 44°03' E 009°50'5 8.2
2017-Jun-18 15:52N 44°06' E 009°44'2 6.3
2017-Jun-18 15:30N 44°07' E 009°41'2 4.4
2017-Jun-18 15:01N 44°09' E 009°39'0 0.1
2017-Jun-18 13:47N 44°09' E 009°39'0 0.0
2017-Jun-18 13:30N 44°09' E 009°39'0 0.0
2017-Jun-18 13:00N 44°09' E 009°39'0 0.1
2017-Jun-18 12:30N 44°09' E 009°39'4 7.2
2017-Jun-18 12:00N 44°06' E 009°43'1 1.8
2017-Jun-18 11:30N 44°06' E 009°44'510.5
2017-Jun-18 11:00N 44°03' E 009°50'2 4.4
2017-Jun-18 10:30N 44°05' E 009°51'1 2.7
2017-Jun-18 10:00N 44°06' E 009°50'0 0.0
2017-Jun-18 09:30N 44°06' E 009°50'0 0.0
2017-Jun-18 08:57N 44°06' E 009°50'0 0.0
2017-Jun-18 08:30N 44°06' E 009°50'3 5.4
2017-Jun-18 08:00N 44°04' E 009°51'1 2.7
2017-Jun-18 07:31N 44°05' E 009°50'1 2.8
2017-Jun-18 07:00N 44°06' E 009°50'0 0.1
2017-Jun-18 06:31N 44°06' E 009°50'0 0.0
2017-Jun-18 06:00N 44°06' E 009°50'0 0.0
2017-Jun-17 17:03N 44°06' E 009°50'0 0.1
2017-Jun-17 17:00N 44°06' E 009°50'4 7.9
2017-Jun-17 16:30N 44°02' E 009°51'3 5.1
2017-Jun-17 16:00N 44°05' E 009°51'2 3.1
2017-Jun-17 15:30N 44°06' E 009°50'4 7.9
2017-Jun-17 15:00N 44°02' E 009°51'0 0.1
2017-Jun-17 14:30N 44°02' E 009°51'4 3.9
2017-Jun-17 13:30N 44°06' E 009°50'4 7.8
2017-Jun-17 13:00N 44°03' E 009°52'2 4.9
2017-Jun-17 12:30N 44°05' E 009°51'1 2.9
2017-Jun-17 12:00N 44°06' E 009°50'0 0.0
2017-Jun-17 11:30N 44°06' E 009°50'0 0.0
2017-Jun-17 11:00N 44°06' E 009°50'0 0.1
2017-Jun-17 10:30N 44°06' E 009°50'4 7.9
2017-Jun-17 10:00N 44°02' E 009°51'4 8.0
2017-Jun-17 09:30N 44°06' E 009°50'3 6.0
2017-Jun-17 09:00N 44°04' E 009°52'2 3.6
2017-Jun-17 08:30N 44°05' E 009°51'1 2.1
2017-Jun-17 08:00N 44°06' E 009°50'  
Track history (hours):
 
Tides and Currents Weather Stations Pressure Air Temp Water Temp Dewpoint Dewpoint Depression Visibility Wind Speed Wind Dir Waves Ship Positions

Euro IV

Last reported at 2017-Jun-26 18:18 UTC. Time now 2017-Jun-26 21:05 UTC.
Position N 44°06' E 009°50'.

Length 25 m; draft 1.3 m.

Type: Passenger vessel. MMSI: 247131500.

Date/timePositionNaut miles runAvg speedWind from/ knotsBaromVisibWave heightAir tempDewpointWater temp
2017-Jun-26 18:18N 44°06' E 009°50'2 7.5
2017-Jun-26 18:00N 44°04' E 009°51'611.1
2017-Jun-26 17:30N 44°04' E 009°44'710.2
2017-Jun-26 16:48N 44°09' E 009°36'2 7.9
2017-Jun-26 16:30N 44°09' E 009°39'3 6.1
2017-Jun-26 16:00N 44°07' E 009°42'1 2.9
2017-Jun-26 15:30N 44°06' E 009°44'510.7
2017-Jun-26 15:01N 44°03' E 009°50'0 0.0
2017-Jun-26 14:31N 44°03' E 009°50'5 5.2
2017-Jun-26 13:30N 44°06' E 009°44'4 8.8
2017-Jun-26 13:00N 44°09' E 009°39'0 0.0
2017-Jun-26 12:30N 44°09' E 009°39'0 0.0
2017-Jun-26 12:00N 44°09' E 009°39'0 0.0
2017-Jun-26 11:30N 44°09' E 009°39'3 5.5
2017-Jun-26 11:00N 44°07' E 009°42'2 3.4
2017-Jun-26 10:30N 44°06' E 009°44'510.5
2017-Jun-26 10:00N 44°03' E 009°50'2 3.5
2017-Jun-26 09:30N 44°05' E 009°50'1 2.9
2017-Jun-26 09:00N 44°06' E 009°50'0 0.0
2017-Jun-26 08:30N 44°06' E 009°50'0 0.0
2017-Jun-26 08:00N 44°06' E 009°50'0 0.0
2017-Jun-26 07:30N 44°06' E 009°50'0 0.0
2017-Jun-26 07:00N 44°06' E 009°50'0 0.4
2017-Jun-26 06:30N 44°06' E 009°50'0 0.4
2017-Jun-26 06:00N 44°06' E 009°50'0 0.0
2017-Jun-25 15:35N 44°06' E 009°50'0 0.2
2017-Jun-25 15:30N 44°06' E 009°50'4 7.9
2017-Jun-25 15:00N 44°02' E 009°51'0 0.0
2017-Jun-25 14:30N 44°02' E 009°51'2 2.2
2017-Jun-25 13:31N 44°05' E 009°51'1 2.4
2017-Jun-25 13:00N 44°03' E 009°51'2 4.8
2017-Jun-25 12:31N 44°06' E 009°50'1 1.1
2017-Jun-25 11:50N 44°06' E 009°50'0 0.0
2017-Jun-25 11:30N 44°06' E 009°50'0 0.0
2017-Jun-25 11:00N 44°06' E 009°50'0 0.0
2017-Jun-25 07:52N 44°06' E 009°50'0 0.0
2017-Jun-25 07:31N 44°06' E 009°50'0 0.1
2017-Jun-25 07:01N 44°06' E 009°50'0 0.0
2017-Jun-25 06:31N 44°06' E 009°50'0 0.0
2017-Jun-25 06:00N 44°06' E 009°50'0 0.0
2017-Jun-24 17:45N 44°06' E 009°50'1 6.2
2017-Jun-24 17:30N 44°05' E 009°51'2 4.5
2017-Jun-24 17:00N 44°03' E 009°51'611.0
2017-Jun-24 16:30N 44°05' E 009°44'3 5.1
2017-Jun-24 16:00N 44°07' E 009°41'2 3.3
2017-Jun-24 15:30N 44°08' E 009°39'0 0.7
2017-Jun-24 15:00N 44°09' E 009°39'0 0.1
2017-Jun-24 13:55N 44°09' E 009°39'0 0.0
2017-Jun-24 13:30N 44°09' E 009°39'0 0.0
2017-Jun-24 12:58N 44°09' E 009°39'0 0.3
2017-Jun-24 12:30N 44°09' E 009°39'2 3.4
2017-Jun-24 12:00N 44°07' E 009°41'3 4.2
2017-Jun-24 11:20N 44°06' E 009°44'412.0
2017-Jun-24 11:01N 44°04' E 009°48'2 4.2
2017-Jun-24 10:31N 44°05' E 009°51'2 3.8
2017-Jun-24 10:00N 44°06' E 009°50'3 6.1
2017-Jun-24 09:31N 44°03' E 009°51'510.4
2017-Jun-24 09:00N 44°05' E 009°44'1 2.0
2017-Jun-24 08:23N 44°06' E 009°43'514.4
2017-Jun-24 08:01N 44°03' E 009°50'2 4.1
2017-Jun-24 07:30N 44°05' E 009°50'1 2.4
2017-Jun-24 07:00N 44°06' E 009°50'0 0.0
2017-Jun-24 06:30N 44°06' E 009°50'0 0.0
2017-Jun-24 06:00N 44°06' E 009°50'0 0.0
2017-Jun-23 16:44N 44°06' E 009°50'2 7.9
2017-Jun-23 16:30N 44°05' E 009°51'2 4.3
2017-Jun-23 16:00N 44°03' E 009°49'5 8.6
2017-Jun-23 15:26N 44°06' E 009°43'4 8.8
2017-Jun-23 15:00N 44°09' E 009°39'0 0.1
2017-Jun-23 13:57N 44°09' E 009°39'0 0.0
2017-Jun-23 13:21N 44°09' E 009°39'0 0.0
2017-Jun-23 13:00N 44°09' E 009°39'0 0.0
2017-Jun-23 12:27N 44°09' E 009°39'1 2.3
2017-Jun-23 11:55N 44°08' E 009°41'3 7.3
2017-Jun-23 11:30N 44°06' E 009°44'4 7.4
2017-Jun-23 11:00N 44°04' E 009°48'3 5.1
2017-Jun-23 10:30N 44°04' E 009°51'2 4.0
2017-Jun-23 10:00N 44°06' E 009°50'0 0.0
2017-Jun-23 09:30N 44°06' E 009°50'0 0.0
2017-Jun-23 09:00N 44°06' E 009°50'0 0.0
2017-Jun-23 08:30N 44°06' E 009°50'0 0.0
2017-Jun-23 08:00N 44°06' E 009°50'0 0.0
2017-Jun-23 07:30N 44°06' E 009°50'0 0.0
2017-Jun-23 07:00N 44°06' E 009°50'0 0.1
2017-Jun-23 06:30N 44°06' E 009°50'0 0.0
2017-Jun-23 06:00N 44°06' E 009°50'0 0.0
2017-Jun-22 16:38N 44°06' E 009°50'0 0.1
2017-Jun-22 16:27N 44°06' E 009°50'3 7.3
2017-Jun-22 16:00N 44°03' E 009°50'714.7
2017-Jun-22 15:30N 44°07' E 009°41'1 2.0
2017-Jun-22 14:59N 44°08' E 009°40'7 7.4
2017-Jun-22 14:00N 44°03' E 009°49'3 5.5
2017-Jun-22 13:30N 44°06' E 009°50'0 0.3
2017-Jun-22 13:00N 44°06' E 009°50'0 0.0
2017-Jun-22 12:30N 44°06' E 009°50'0 0.0
2017-Jun-22 12:00N 44°06' E 009°50'0 0.0
2017-Jun-22 11:30N 44°06' E 009°50'0 0.0
2017-Jun-22 11:00N 44°06' E 009°50'0 0.0
2017-Jun-22 10:30N 44°06' E 009°50'0 0.8
2017-Jun-22 10:00N 44°06' E 009°50'3 6.8
2017-Jun-22 09:30N 44°03' E 009°47'711.5
2017-Jun-22 08:55N 44°08' E 009°41'511.1
2017-Jun-22 08:30N 44°05' E 009°45'4 8.3
2017-Jun-22 07:58N 44°04' E 009°51'2 4.9
2017-Jun-22 07:30N 44°06' E 009°50'0 0.4
2017-Jun-22 07:00N 44°06' E 009°50'0 0.0
2017-Jun-22 06:30N 44°06' E 009°50'0 0.0
2017-Jun-21 15:53N 44°06' E 009°50'1 2.9
2017-Jun-21 15:30N 44°05' E 009°51'2 4.4
2017-Jun-21 15:00N 44°03' E 009°50'0 0.0
2017-Jun-21 14:30N 44°03' E 009°50'6 5.7
2017-Jun-21 13:30N 44°06' E 009°43'4 7.2
2017-Jun-21 13:00N 44°08' E 009°39'3 6.5
2017-Jun-21 12:30N 44°06' E 009°43'4 7.3
2017-Jun-21 12:00N 44°09' E 009°39'0 0.0
2017-Jun-21 11:30N 44°09' E 009°39'1 1.8
2017-Jun-21 10:47N 44°08' E 009°41'412.7
2017-Jun-21 10:30N 44°05' E 009°44'5 9.9
2017-Jun-21 10:00N 44°03' E 009°50'0 0.0
2017-Jun-21 09:30N 44°03' E 009°50'510.5
2017-Jun-21 09:01N 44°06' E 009°44'1 1.9
2017-Jun-21 08:30N 44°06' E 009°43'4 6.9
2017-Jun-21 08:00N 44°09' E 009°39'3 6.1
2017-Jun-21 07:29N 44°06' E 009°42'4 8.6
2017-Jun-21 07:00N 44°04' E 009°47'3 5.2
2017-Jun-21 06:31N 44°03' E 009°50'3 0.2
2017-Jun-20 15:24N 44°06' E 009°50'0 1.2
2017-Jun-20 15:00N 44°06' E 009°50'3 5.6
2017-Jun-20 14:30N 44°03' E 009°50'6 6.2
2017-Jun-20 13:30N 44°06' E 009°43'4 7.1
2017-Jun-20 13:00N 44°09' E 009°39'0 0.2
2017-Jun-20 12:22N 44°09' E 009°39'0 0.0
2017-Jun-20 12:00N 44°09' E 009°39'0 0.0
2017-Jun-20 11:30N 44°09' E 009°39'0 0.4
2017-Jun-20 10:59N 44°08' E 009°39'0 0.5
2017-Jun-20 10:30N 44°09' E 009°39'3 6.4
2017-Jun-20 10:00N 44°06' E 009°42'2 3.1
2017-Jun-20 09:21N 44°08' E 009°41'3 5.9
2017-Jun-20 08:54N 44°06' E 009°43'1 1.6
2017-Jun-20 08:30N 44°06' E 009°44'510.6
2017-Jun-20 08:00N 44°03' E 009°50'2 3.6
2017-Jun-20 07:30N 44°05' E 009°51'1 2.7
2017-Jun-20 07:00N 44°06' E 009°50'0 0.6
2017-Jun-20 06:30N 44°06' E 009°50'1 0.0
2017-Jun-19 17:15N 44°06' E 009°50'2 6.7
2017-Jun-19 17:00N 44°05' E 009°51'2 3.9
2017-Jun-19 16:30N 44°03' E 009°52'1 2.5
2017-Jun-19 16:00N 44°03' E 009°50'0 0.0
2017-Jun-19 15:30N 44°03' E 009°50'3 6.8
2017-Jun-19 15:00N 44°04' E 009°55'3 3.4
2017-Jun-19 14:01N 44°03' E 009°50'1 2.7
2017-Jun-19 13:31N 44°02' E 009°51'1 2.7
2017-Jun-19 13:00N 44°03' E 009°50'2 4.3
2017-Jun-19 12:31N 44°04' E 009°53'1 2.8
2017-Jun-19 12:00N 44°04' E 009°55'0 0.0
2017-Jun-19 11:31N 44°04' E 009°55'3 6.9
2017-Jun-19 11:00N 44°03' E 009°50'2 3.7
2017-Jun-19 10:30N 44°01' E 009°51'2 3.7
2017-Jun-19 10:00N 44°03' E 009°50'3 6.8
2017-Jun-19 09:30N 44°04' E 009°55'0 0.0
2017-Jun-19 09:00N 44°04' E 009°55'3 6.8
2017-Jun-19 08:30N 44°03' E 009°50'0 0.0
2017-Jun-19 08:00N 44°03' E 009°50'3 6.9
2017-Jun-19 07:30N 44°04' E 009°55'3 6.2
2017-Jun-19 07:00N 44°03' E 009°51'3 6.7
2017-Jun-19 06:30N 44°06' E 009°50'0 0.0
2017-Jun-18 17:11N 44°06' E 009°50'0 0.9
2017-Jun-18 17:00N 44°06' E 009°50'3 6.0
2017-Jun-18 16:30N 44°03' E 009°50'5 8.2
2017-Jun-18 15:52N 44°06' E 009°44'2 6.3
2017-Jun-18 15:30N 44°07' E 009°41'2 4.4
2017-Jun-18 15:01N 44°09' E 009°39'0 0.1
2017-Jun-18 13:47N 44°09' E 009°39'0 0.0
2017-Jun-18 13:30N 44°09' E 009°39'0 0.0
2017-Jun-18 13:00N 44°09' E 009°39'0 0.1
2017-Jun-18 12:30N 44°09' E 009°39'4 7.2
2017-Jun-18 12:00N 44°06' E 009°43'1 1.8
2017-Jun-18 11:30N 44°06' E 009°44'510.5
2017-Jun-18 11:00N 44°03' E 009°50'2 4.4
2017-Jun-18 10:30N 44°05' E 009°51'1 2.7
2017-Jun-18 10:00N 44°06' E 009°50'0 0.0
2017-Jun-18 09:30N 44°06' E 009°50'0 0.0
2017-Jun-18 08:57N 44°06' E 009°50'0 0.0
2017-Jun-18 08:30N 44°06' E 009°50'3 5.4
2017-Jun-18 08:00N 44°04' E 009°51'1 2.7
2017-Jun-18 07:31N 44°05' E 009°50'1 2.8
2017-Jun-18 07:00N 44°06' E 009°50'0 0.1
2017-Jun-18 06:31N 44°06' E 009°50'0 0.0
2017-Jun-18 06:00N 44°06' E 009°50'0 0.0
2017-Jun-17 17:03N 44°06' E 009°50'0 0.1
2017-Jun-17 17:00N 44°06' E 009°50'4 7.9
2017-Jun-17 16:30N 44°02' E 009°51'3 5.1
2017-Jun-17 16:00N 44°05' E 009°51'2 3.1
2017-Jun-17 15:30N 44°06' E 009°50'4 7.9
2017-Jun-17 15:00N 44°02' E 009°51'0 0.1
2017-Jun-17 14:30N 44°02' E 009°51'4 3.9
2017-Jun-17 13:30N 44°06' E 009°50'4 7.8
2017-Jun-17 13:00N 44°03' E 009°52'2 4.9
2017-Jun-17 12:30N 44°05' E 009°51'1 2.9
2017-Jun-17 12:00N 44°06' E 009°50'0 0.0
2017-Jun-17 11:30N 44°06' E 009°50'0 0.0
2017-Jun-17 11:00N 44°06' E 009°50'0 0.1
2017-Jun-17 10:30N 44°06' E 009°50'4 7.9
2017-Jun-17 10:00N 44°02' E 009°51'4 8.0
2017-Jun-17 09:30N 44°06' E 009°50'3 6.0
2017-Jun-17 09:00N 44°04' E 009°52'2 3.6
2017-Jun-17 08:30N 44°05' E 009°51'1 2.1
2017-Jun-17 08:00N 44°06' E 009°50'  

Dump ship's entire track history